createdAt,value
2023-08-31T00:00:58.426Z,1001.56
2023-08-31T00:01:58.417Z,1001.55
2023-08-31T00:02:58.514Z,1001.53
2023-08-31T00:03:58.464Z,1001.56
2023-08-31T00:04:58.433Z,1001.54
2023-08-31T00:05:58.395Z,1001.57
2023-08-31T00:06:58.388Z,1001.57
2023-08-31T00:07:58.382Z,1001.52
2023-08-31T00:08:58.422Z,1001.57
2023-08-31T00:09:58.378Z,1001.52
2023-08-31T00:10:58.367Z,1001.52
2023-08-31T00:11:58.366Z,1001.54
2023-08-31T00:12:58.359Z,1001.51
2023-08-31T00:13:58.356Z,1001.53
2023-08-31T00:14:58.350Z,1001.54
2023-08-31T00:15:58.529Z,1001.56
2023-08-31T00:16:58.346Z,1001.55
2023-08-31T00:17:58.403Z,1001.55
2023-08-31T00:18:58.342Z,1001.56
2023-08-31T00:19:58.326Z,1001.57
2023-08-31T00:20:58.323Z,1001.57
2023-08-31T00:21:58.320Z,1001.55
2023-08-31T00:22:58.314Z,1001.51
2023-08-31T00:23:58.310Z,1001.56
2023-08-31T00:24:58.310Z,1001.59
2023-08-31T00:25:58.320Z,1001.52
2023-08-31T00:26:58.296Z,1001.53
2023-08-31T00:27:58.288Z,1001.54
2023-08-31T00:28:58.280Z,1001.51
2023-08-31T00:29:58.280Z,1001.52
2023-08-31T00:30:58.294Z,1001.48
2023-08-31T00:31:58.274Z,1001.47
2023-08-31T00:32:58.278Z,1001.50
2023-08-31T00:33:58.263Z,1001.49
2023-08-31T00:34:58.255Z,1001.50
2023-08-31T00:35:58.248Z,1001.48
2023-08-31T00:36:58.244Z,1001.46
2023-08-31T00:37:58.243Z,1001.45
2023-08-31T00:38:58.233Z,1001.47
2023-08-31T00:39:58.228Z,1001.41
2023-08-31T00:40:58.225Z,1001.44
2023-08-31T00:41:58.219Z,1001.42
2023-08-31T00:42:58.216Z,1001.40
2023-08-31T00:43:58.209Z,1001.42
2023-08-31T00:44:58.215Z,1001.50
2023-08-31T00:45:58.219Z,1001.51
2023-08-31T00:46:58.192Z,1001.55
2023-08-31T00:47:58.215Z,1001.53
2023-08-31T00:48:58.182Z,1001.56
2023-08-31T00:49:58.205Z,1001.59
2023-08-31T00:50:58.184Z,1001.60
2023-08-31T00:51:58.187Z,1001.55
2023-08-31T00:52:58.168Z,1001.54
2023-08-31T00:53:58.158Z,1001.52
2023-08-31T00:54:58.156Z,1001.50
2023-08-31T00:55:58.163Z,1001.47
2023-08-31T00:56:58.139Z,1001.46
2023-08-31T00:57:58.140Z,1001.46
2023-08-31T00:58:58.148Z,1001.48
2023-08-31T00:59:58.130Z,1001.46
2023-08-31T01:00:58.125Z,1001.48
2023-08-31T01:01:58.197Z,1001.52
2023-08-31T01:02:58.221Z,1001.50
2023-08-31T01:03:58.210Z,1001.52
2023-08-31T01:04:58.106Z,1001.50
2023-08-31T01:05:58.101Z,1001.51
2023-08-31T01:06:58.096Z,1001.48
2023-08-31T01:07:58.091Z,1001.49
2023-08-31T01:08:58.158Z,1001.55
2023-08-31T01:09:58.082Z,1001.55
2023-08-31T01:10:58.074Z,1001.58
2023-08-31T01:11:58.070Z,1001.61
2023-08-31T01:12:58.073Z,1001.64
2023-08-31T01:13:58.086Z,1001.65
2023-08-31T01:14:58.056Z,1001.62
2023-08-31T01:15:58.090Z,1001.66
2023-08-31T01:16:58.051Z,1001.69
2023-08-31T01:17:58.097Z,1001.71
2023-08-31T01:18:58.034Z,1001.72
2023-08-31T01:19:58.039Z,1001.75
2023-08-31T01:20:58.036Z,1001.71
2023-08-31T01:21:58.021Z,1001.74
2023-08-31T01:22:58.020Z,1001.70
2023-08-31T01:23:58.048Z,1001.74
2023-08-31T01:24:58.009Z,1001.74
2023-08-31T01:25:58.002Z,1001.72
2023-08-31T01:26:57.996Z,1001.77
2023-08-31T01:27:57.988Z,1001.75
2023-08-31T01:28:57.986Z,1001.78
2023-08-31T01:29:57.989Z,1001.85
2023-08-31T01:30:57.976Z,1001.84
2023-08-31T01:31:58.000Z,1001.87
2023-08-31T01:32:57.988Z,1001.92
2023-08-31T01:33:57.964Z,1001.90
2023-08-31T01:34:57.956Z,1001.87
2023-08-31T01:35:57.953Z,1001.88
2023-08-31T01:36:57.968Z,1001.91
2023-08-31T01:37:57.941Z,1001.92
2023-08-31T01:38:57.933Z,1001.90
2023-08-31T01:39:57.930Z,1001.90
2023-08-31T01:40:57.926Z,1001.91
2023-08-31T01:41:57.928Z,1001.92
2023-08-31T01:42:57.913Z,1001.95
2023-08-31T01:43:57.907Z,1001.92
2023-08-31T01:44:57.903Z,1001.96
2023-08-31T01:45:57.970Z,1001.95
2023-08-31T01:46:57.891Z,1001.95
2023-08-31T01:47:57.919Z,1002.02
2023-08-31T01:48:57.882Z,1001.97
2023-08-31T01:49:57.880Z,1001.96
2023-08-31T01:50:57.875Z,1001.97
2023-08-31T01:51:57.869Z,1001.99
2023-08-31T01:52:57.868Z,1002.02
2023-08-31T01:53:57.859Z,1001.96
2023-08-31T01:54:57.853Z,1002.00
2023-08-31T01:55:57.849Z,1001.99
2023-08-31T01:56:57.842Z,1001.99
2023-08-31T01:57:57.836Z,1002.00
2023-08-31T01:58:57.830Z,1001.98
2023-08-31T01:59:57.827Z,1001.99
2023-08-31T02:00:57.954Z,1002.05
2023-08-31T02:01:57.824Z,1002.04
2023-08-31T02:02:57.872Z,1002.05
2023-08-31T02:03:57.806Z,1002.07
2023-08-31T02:04:57.800Z,1002.11
2023-08-31T02:05:57.796Z,1002.17
2023-08-31T02:06:57.801Z,1002.10
2023-08-31T02:07:57.783Z,1002.17
2023-08-31T02:08:57.780Z,1002.16
2023-08-31T02:09:57.775Z,1002.19
2023-08-31T02:10:57.773Z,1002.16
2023-08-31T02:11:57.774Z,1002.21
2023-08-31T02:12:57.762Z,1002.16
2023-08-31T02:13:57.755Z,1002.24
2023-08-31T02:14:57.746Z,1002.27
2023-08-31T02:15:57.777Z,1002.27
2023-08-31T02:16:57.738Z,1002.29
2023-08-31T02:17:57.779Z,1002.24
2023-08-31T02:18:57.725Z,1002.25
2023-08-31T02:19:57.719Z,1002.26
2023-08-31T02:20:57.716Z,1002.28
2023-08-31T02:21:57.710Z,1002.28
2023-08-31T02:22:57.701Z,1002.29
2023-08-31T02:23:57.699Z,1002.36
2023-08-31T02:24:57.692Z,1002.33
2023-08-31T02:25:57.717Z,1002.32
2023-08-31T02:26:57.680Z,1002.34
2023-08-31T02:27:57.677Z,1002.34
2023-08-31T02:28:57.675Z,1002.30
2023-08-31T02:29:57.673Z,1002.25
2023-08-31T02:30:57.682Z,1002.21
2023-08-31T02:31:57.659Z,1002.18
2023-08-31T02:32:57.685Z,1002.18
2023-08-31T02:33:57.644Z,1002.20
2023-08-31T02:34:57.634Z,1002.21
2023-08-31T02:35:57.649Z,1002.22
2023-08-31T02:36:57.638Z,1002.20
2023-08-31T02:37:57.618Z,1002.20
2023-08-31T02:38:57.613Z,1002.28
2023-08-31T02:39:57.610Z,1002.28
2023-08-31T02:40:57.613Z,1002.31
2023-08-31T02:41:57.598Z,1002.36
2023-08-31T02:42:57.597Z,1002.36
2023-08-31T02:43:57.587Z,1002.38
2023-08-31T02:44:57.595Z,1002.42
2023-08-31T02:45:57.577Z,1002.41
2023-08-31T02:46:57.568Z,1002.42
2023-08-31T02:47:57.649Z,1002.40
2023-08-31T02:48:57.611Z,1002.41
2023-08-31T02:49:57.553Z,1002.39
2023-08-31T02:50:57.550Z,1002.39
2023-08-31T02:51:57.544Z,1002.38
2023-08-31T02:52:57.543Z,1002.38
2023-08-31T02:53:57.532Z,1002.37
2023-08-31T02:54:57.528Z,1002.33
2023-08-31T02:55:57.520Z,1002.36
2023-08-31T02:56:57.516Z,1002.33
2023-08-31T02:57:57.508Z,1002.40
2023-08-31T02:58:57.507Z,1002.39
2023-08-31T02:59:57.503Z,1002.40
2023-08-31T03:00:57.514Z,1002.47
2023-08-31T03:01:57.528Z,1002.53
2023-08-31T03:02:57.492Z,1002.50
2023-08-31T03:03:57.475Z,1002.45
2023-08-31T03:04:57.469Z,1002.49
2023-08-31T03:05:57.465Z,1002.44
2023-08-31T03:06:57.460Z,1002.39
2023-08-31T03:07:57.451Z,1002.37
2023-08-31T03:08:57.449Z,1002.36
2023-08-31T03:09:57.440Z,1002.39
2023-08-31T03:10:57.446Z,1002.41
2023-08-31T03:11:57.436Z,1002.43
2023-08-31T03:12:57.425Z,1002.44
2023-08-31T03:13:57.435Z,1002.48
2023-08-31T03:14:57.412Z,1002.51
2023-08-31T03:15:57.409Z,1002.50
2023-08-31T03:16:57.403Z,1002.52
2023-08-31T03:17:58.104Z,1002.53
2023-08-31T03:18:57.388Z,1002.51
2023-08-31T03:19:57.389Z,1002.54
2023-08-31T03:20:57.380Z,1002.51
2023-08-31T03:21:57.382Z,1002.49
2023-08-31T03:22:57.377Z,1002.50
2023-08-31T03:23:57.364Z,1002.49
2023-08-31T03:24:57.356Z,1002.51
2023-08-31T03:25:57.374Z,1002.47
2023-08-31T03:26:57.343Z,1002.49
2023-08-31T03:27:57.340Z,1002.53
2023-08-31T03:28:57.343Z,1002.54
2023-08-31T03:29:57.330Z,1002.57
2023-08-31T03:30:57.425Z,1002.56
2023-08-31T03:31:57.318Z,1002.57
2023-08-31T03:32:57.317Z,1002.57
2023-08-31T03:33:57.328Z,1002.58
2023-08-31T03:34:57.304Z,1002.54
2023-08-31T03:35:57.296Z,1002.57
2023-08-31T03:36:57.301Z,1002.56
2023-08-31T03:37:57.284Z,1002.56
2023-08-31T03:38:57.279Z,1002.60
2023-08-31T03:39:57.273Z,1002.59
2023-08-31T03:40:57.278Z,1002.62
2023-08-31T03:41:57.262Z,1002.63
2023-08-31T03:42:57.257Z,1002.63
2023-08-31T03:43:57.255Z,1002.65
2023-08-31T03:44:57.244Z,1002.63
2023-08-31T03:45:57.314Z,1002.62
2023-08-31T03:46:57.241Z,1002.60
2023-08-31T03:47:57.277Z,1002.60
2023-08-31T03:48:57.221Z,1002.61
2023-08-31T03:49:57.219Z,1002.60
2023-08-31T03:50:57.219Z,1002.59
2023-08-31T03:51:57.208Z,1002.65
2023-08-31T03:52:57.204Z,1002.62
2023-08-31T03:53:57.195Z,1002.67
2023-08-31T03:54:57.205Z,1002.66
2023-08-31T03:55:57.189Z,1002.65
2023-08-31T03:56:57.176Z,1002.66
2023-08-31T03:57:57.172Z,1002.67
2023-08-31T03:58:57.176Z,1002.66
2023-08-31T03:59:57.159Z,1002.68
2023-08-31T04:00:57.164Z,1002.72
2023-08-31T04:01:57.186Z,1002.72
2023-08-31T04:02:58.904Z,1002.72
2023-08-31T04:03:57.182Z,1002.76
2023-08-31T04:04:57.131Z,1002.78
2023-08-31T04:05:57.130Z,1002.75
2023-08-31T04:06:57.119Z,1002.76
2023-08-31T04:07:57.111Z,1002.78
2023-08-31T04:08:57.107Z,1002.77
2023-08-31T04:09:57.102Z,1002.80
2023-08-31T04:10:57.094Z,1002.73
2023-08-31T04:11:57.092Z,1002.78
2023-08-31T04:12:57.090Z,1002.80
2023-08-31T04:13:57.095Z,1002.75
2023-08-31T04:14:57.070Z,1002.78
2023-08-31T04:15:57.113Z,1002.81
2023-08-31T04:16:57.065Z,1002.80
2023-08-31T04:17:57.183Z,1002.79
2023-08-31T04:18:57.048Z,1002.80
2023-08-31T04:19:57.042Z,1002.80
2023-08-31T04:20:57.049Z,1002.82
2023-08-31T04:21:57.031Z,1002.83
2023-08-31T04:22:57.048Z,1002.79
2023-08-31T04:23:57.019Z,1002.84
2023-08-31T04:24:57.014Z,1002.88
2023-08-31T04:25:57.008Z,1002.87
2023-08-31T04:26:57.014Z,1002.92
2023-08-31T04:27:57.000Z,1002.89
2023-08-31T04:28:57.078Z,1002.89
2023-08-31T04:29:56.985Z,1002.92
2023-08-31T04:30:56.985Z,1002.91
2023-08-31T04:31:56.976Z,1002.92
2023-08-31T04:32:57.000Z,1002.92
2023-08-31T04:33:56.962Z,1002.92
2023-08-31T04:34:57.814Z,1002.96
2023-08-31T04:35:56.950Z,1002.96
2023-08-31T04:36:56.954Z,1002.92
2023-08-31T04:37:56.942Z,1002.96
2023-08-31T04:38:56.934Z,1002.94
2023-08-31T04:39:56.929Z,1002.95
2023-08-31T04:40:56.923Z,1002.96
2023-08-31T04:41:56.918Z,1002.92
2023-08-31T04:42:56.909Z,1002.98
2023-08-31T04:43:56.903Z,1002.97
2023-08-31T04:44:56.902Z,1002.98
2023-08-31T04:45:57.010Z,1002.97
2023-08-31T04:46:56.890Z,1002.96
2023-08-31T04:47:56.907Z,1003.03
2023-08-31T04:48:56.882Z,1003.01
2023-08-31T04:49:56.871Z,1003.05
2023-08-31T04:50:56.870Z,1003.04
2023-08-31T04:51:56.866Z,1003.06
2023-08-31T04:52:56.858Z,1003.04
2023-08-31T04:53:56.854Z,1003.05
2023-08-31T04:54:56.847Z,1003.08
2023-08-31T04:55:56.837Z,1003.06
2023-08-31T04:56:57.018Z,1003.10
2023-08-31T04:57:56.831Z,1003.10
2023-08-31T04:58:56.822Z,1003.13
2023-08-31T04:59:56.821Z,1003.13
2023-08-31T05:00:56.850Z,1003.13
2023-08-31T05:01:56.802Z,1003.08
2023-08-31T05:02:56.870Z,1003.14
2023-08-31T05:03:56.792Z,1003.11
2023-08-31T05:04:56.789Z,1003.14
2023-08-31T05:05:56.812Z,1003.12
2023-08-31T05:06:56.772Z,1003.15
2023-08-31T05:07:56.768Z,1003.17
2023-08-31T05:08:56.766Z,1003.11
2023-08-31T05:09:56.758Z,1003.10
2023-08-31T05:10:56.750Z,1003.10
2023-08-31T05:11:56.749Z,1003.11
2023-08-31T05:12:56.742Z,1003.09
2023-08-31T05:13:56.735Z,1003.15
2023-08-31T05:14:56.730Z,1003.13
2023-08-31T05:15:56.726Z,1003.18
2023-08-31T05:16:56.927Z,1003.11
2023-08-31T05:17:56.769Z,1003.13
2023-08-31T05:18:56.707Z,1003.08
2023-08-31T05:19:56.698Z,1003.08
2023-08-31T05:20:56.696Z,1003.04
2023-08-31T05:21:56.696Z,1003.07
2023-08-31T05:22:56.686Z,1003.09
2023-08-31T05:23:56.684Z,1003.04
2023-08-31T05:24:56.674Z,1003.10
2023-08-31T05:25:56.668Z,1003.13
2023-08-31T05:26:56.663Z,1003.16
2023-08-31T05:27:56.666Z,1003.13
2023-08-31T05:28:56.666Z,1003.17
2023-08-31T05:29:56.648Z,1003.16
2023-08-31T05:30:56.680Z,1003.20
2023-08-31T05:31:56.636Z,1003.20
2023-08-31T05:32:56.684Z,1003.21
2023-08-31T05:33:56.626Z,1003.19
2023-08-31T05:34:56.614Z,1003.23
2023-08-31T05:35:56.632Z,1003.24
2023-08-31T05:36:56.612Z,1003.27
2023-08-31T05:37:56.612Z,1003.27
2023-08-31T05:38:56.600Z,1003.31
2023-08-31T05:39:56.599Z,1003.35
2023-08-31T05:40:56.586Z,1003.37
2023-08-31T05:41:56.608Z,1003.36
2023-08-31T05:42:56.575Z,1003.41
2023-08-31T05:43:56.571Z,1003.42
2023-08-31T05:44:56.571Z,1003.46
2023-08-31T05:45:56.584Z,1003.54
2023-08-31T05:46:56.556Z,1003.48
2023-08-31T05:47:56.596Z,1003.49
2023-08-31T05:48:56.569Z,1003.48
2023-08-31T05:49:56.540Z,1003.52
2023-08-31T05:50:56.534Z,1003.52
2023-08-31T05:51:56.526Z,1003.53
2023-08-31T05:52:56.540Z,1003.51
2023-08-31T05:53:56.517Z,1003.53
2023-08-31T05:54:56.511Z,1003.48
2023-08-31T05:55:56.512Z,1003.52
2023-08-31T05:56:56.514Z,1003.55
2023-08-31T05:57:56.496Z,1003.54
2023-08-31T05:58:56.489Z,1003.55
2023-08-31T05:59:56.482Z,1003.56
2023-08-31T06:00:56.481Z,1003.52
2023-08-31T06:01:56.537Z,1003.53
2023-08-31T06:02:56.620Z,1003.51
2023-08-31T06:03:56.486Z,1003.54
2023-08-31T06:04:56.460Z,1003.53
2023-08-31T06:05:56.459Z,1003.54
2023-08-31T06:06:56.470Z,1003.57
2023-08-31T06:07:56.442Z,1003.59
2023-08-31T06:08:56.437Z,1003.59
2023-08-31T06:09:56.432Z,1003.64
2023-08-31T06:10:56.440Z,1003.60
2023-08-31T06:11:56.420Z,1003.62
2023-08-31T06:12:56.414Z,1003.62
2023-08-31T06:13:56.410Z,1003.64
2023-08-31T06:14:56.403Z,1003.66
2023-08-31T06:15:56.441Z,1003.69
2023-08-31T06:16:56.395Z,1003.68
2023-08-31T06:17:58.062Z,1003.70
2023-08-31T06:18:56.384Z,1003.72
2023-08-31T06:19:56.393Z,1003.69
2023-08-31T06:20:56.374Z,1003.74
2023-08-31T06:21:56.376Z,1003.76
2023-08-31T06:22:56.364Z,1003.77
2023-08-31T06:23:56.359Z,1003.79
2023-08-31T06:24:56.364Z,1003.81
2023-08-31T06:25:56.352Z,1003.83
2023-08-31T06:26:56.342Z,1003.86
2023-08-31T06:27:56.338Z,1003.83
2023-08-31T06:28:56.336Z,1003.83
2023-08-31T06:29:56.330Z,1003.82
2023-08-31T06:30:56.324Z,1003.81
2023-08-31T06:31:56.356Z,1003.82
2023-08-31T06:32:56.347Z,1003.86
2023-08-31T06:33:56.318Z,1003.85
2023-08-31T06:34:56.301Z,1003.79
2023-08-31T06:35:56.309Z,1003.81
2023-08-31T06:36:56.296Z,1003.84
2023-08-31T06:37:56.287Z,1003.86
2023-08-31T06:38:56.284Z,1003.88
2023-08-31T06:39:56.278Z,1003.90
2023-08-31T06:40:56.273Z,1003.89
2023-08-31T06:41:56.270Z,1003.90
2023-08-31T06:42:56.265Z,1003.94
2023-08-31T06:43:56.262Z,1003.91
2023-08-31T06:44:56.253Z,1003.91
2023-08-31T06:45:58.430Z,1003.94
2023-08-31T06:46:56.268Z,1003.92
2023-08-31T06:47:56.251Z,1003.90
2023-08-31T06:48:56.233Z,1003.94
2023-08-31T06:49:56.232Z,1003.95
2023-08-31T06:50:56.224Z,1003.98
2023-08-31T06:51:56.223Z,1003.94
2023-08-31T06:52:56.214Z,1003.94
2023-08-31T06:53:56.211Z,1003.95
2023-08-31T06:54:56.206Z,1003.97
2023-08-31T06:55:56.203Z,1003.97
2023-08-31T06:56:56.196Z,1004.00
2023-08-31T06:57:57.941Z,1004.03
2023-08-31T06:58:56.185Z,1004.04
2023-08-31T06:59:56.189Z,1004.07
2023-08-31T07:00:56.175Z,1004.07
2023-08-31T07:01:56.174Z,1004.08
2023-08-31T07:02:56.354Z,1004.05
2023-08-31T07:03:56.215Z,1004.07
2023-08-31T07:04:56.160Z,1004.18
2023-08-31T07:05:56.162Z,1004.16
2023-08-31T07:06:56.167Z,1004.18
2023-08-31T07:07:56.154Z,1004.13
2023-08-31T07:08:56.152Z,1004.23
2023-08-31T07:09:56.133Z,1004.21
2023-08-31T07:10:56.132Z,1004.20
2023-08-31T07:11:56.126Z,1004.19
2023-08-31T07:12:56.123Z,1004.16
2023-08-31T07:13:56.120Z,1004.14
2023-08-31T07:14:56.117Z,1004.13
2023-08-31T07:15:56.136Z,1004.14
2023-08-31T07:16:56.105Z,1004.12
2023-08-31T07:17:56.099Z,1004.14
2023-08-31T07:18:56.145Z,1004.14
2023-08-31T07:19:56.093Z,1004.18
2023-08-31T07:20:56.130Z,1004.24
2023-08-31T07:21:56.094Z,1004.26
2023-08-31T07:22:56.110Z,1004.24
2023-08-31T07:23:56.074Z,1004.28
2023-08-31T07:24:56.129Z,1004.27
2023-08-31T07:25:56.068Z,1004.33
2023-08-31T07:26:56.064Z,1004.29
2023-08-31T07:27:56.071Z,1004.30
2023-08-31T07:28:56.072Z,1004.33
2023-08-31T07:29:56.053Z,1004.31
2023-08-31T07:30:56.064Z,1004.34
2023-08-31T07:31:56.046Z,1004.34
2023-08-31T07:32:56.144Z,1004.28
2023-08-31T07:33:56.071Z,1004.35
2023-08-31T07:34:56.031Z,1004.35
2023-08-31T07:35:56.292Z,1004.39
2023-08-31T07:36:56.028Z,1004.39
2023-08-31T07:37:56.026Z,1004.39
2023-08-31T07:38:56.027Z,1004.45
2023-08-31T07:39:56.018Z,1004.46
2023-08-31T07:40:56.012Z,1004.47
2023-08-31T07:41:56.049Z,1004.49
2023-08-31T07:42:56.024Z,1004.50
2023-08-31T07:44:04.308Z,1004.53
2023-08-31T07:44:55.995Z,1004.51
2023-08-31T07:45:56.050Z,1004.57
2023-08-31T07:46:56.058Z,1004.57
2023-08-31T07:47:56.002Z,1004.62
2023-08-31T07:48:55.982Z,1004.62
2023-08-31T07:49:55.987Z,1004.62
2023-08-31T07:50:55.972Z,1004.63
2023-08-31T07:51:55.967Z,1004.65
2023-08-31T07:52:55.964Z,1004.70
2023-08-31T07:53:55.962Z,1004.66
2023-08-31T07:54:55.957Z,1004.71
2023-08-31T07:55:55.978Z,1004.70
2023-08-31T07:56:55.977Z,1004.72
2023-08-31T07:57:55.964Z,1004.71
2023-08-31T07:58:55.941Z,1004.72
2023-08-31T07:59:55.937Z,1004.75
2023-08-31T08:00:56.077Z,1004.76
2023-08-31T08:01:56.054Z,1004.72
2023-08-31T08:02:55.986Z,1004.77
2023-08-31T08:03:55.979Z,1004.78
2023-08-31T08:04:55.920Z,1004.75
2023-08-31T08:05:55.913Z,1004.76
2023-08-31T08:06:55.921Z,1004.79
2023-08-31T08:07:55.905Z,1004.74
2023-08-31T08:08:55.904Z,1004.77
2023-08-31T08:09:55.899Z,1004.82
2023-08-31T08:10:55.908Z,1004.84
2023-08-31T08:11:55.893Z,1004.83
2023-08-31T08:12:55.888Z,1004.81
2023-08-31T08:13:55.885Z,1004.86
2023-08-31T08:14:55.890Z,1004.85
2023-08-31T08:15:55.877Z,1004.93
2023-08-31T08:16:55.892Z,1004.92
2023-08-31T08:17:55.907Z,1004.91
2023-08-31T08:18:55.871Z,1004.89
2023-08-31T08:19:55.877Z,1004.92
2023-08-31T08:20:55.862Z,1004.94
2023-08-31T08:21:55.855Z,1004.96
2023-08-31T08:22:55.853Z,1004.91
2023-08-31T08:23:55.854Z,1004.92
2023-08-31T08:24:55.846Z,1004.95
2023-08-31T08:25:55.844Z,1004.91
2023-08-31T08:26:55.844Z,1004.88
2023-08-31T08:27:55.833Z,1004.94
2023-08-31T08:28:55.913Z,1004.88
2023-08-31T08:29:55.828Z,1004.87
2023-08-31T08:30:55.864Z,1004.85
2023-08-31T08:31:55.819Z,1004.91
2023-08-31T08:32:55.849Z,1004.88
2023-08-31T08:33:55.819Z,1004.89
2023-08-31T08:34:55.814Z,1004.86
2023-08-31T08:35:55.806Z,1004.84
2023-08-31T08:36:55.802Z,1004.83
2023-08-31T08:37:55.796Z,1004.84
2023-08-31T08:38:55.856Z,1004.86
2023-08-31T08:39:55.797Z,1004.87
2023-08-31T08:40:55.839Z,1004.85
2023-08-31T08:41:55.784Z,1004.82
2023-08-31T08:42:55.792Z,1004.81
2023-08-31T08:43:55.783Z,1004.81
2023-08-31T08:44:55.782Z,1004.82
2023-08-31T08:45:55.854Z,1004.81
2023-08-31T08:46:55.766Z,1004.82
2023-08-31T08:47:55.772Z,1004.87
2023-08-31T08:48:55.762Z,1004.85
2023-08-31T08:49:55.771Z,1004.82
2023-08-31T08:50:55.762Z,1004.83
2023-08-31T08:51:55.755Z,1004.88
2023-08-31T08:52:55.747Z,1004.87
2023-08-31T08:53:55.742Z,1004.83
2023-08-31T08:54:55.745Z,1004.82
2023-08-31T08:55:55.752Z,1004.83
2023-08-31T08:56:55.734Z,1004.83
2023-08-31T08:57:55.737Z,1004.79
2023-08-31T08:58:55.725Z,1004.82
2023-08-31T08:59:55.728Z,1004.80
2023-08-31T09:00:55.742Z,1004.82
2023-08-31T09:01:55.846Z,1004.80
2023-08-31T09:02:55.789Z,1004.79
2023-08-31T09:03:55.725Z,1004.76
2023-08-31T09:04:55.852Z,1004.78
2023-08-31T09:05:55.700Z,1004.78
2023-08-31T09:06:55.703Z,1004.80
2023-08-31T09:07:55.697Z,1004.80
2023-08-31T09:08:55.713Z,1004.79
2023-08-31T09:09:55.688Z,1004.81
2023-08-31T09:10:55.699Z,1004.81
2023-08-31T09:11:55.680Z,1004.80
2023-08-31T09:12:55.678Z,1004.84
2023-08-31T09:13:55.675Z,1004.83
2023-08-31T09:14:55.670Z,1004.85
2023-08-31T09:15:55.685Z,1004.88
2023-08-31T09:16:55.813Z,1004.92
2023-08-31T09:17:55.709Z,1004.97
2023-08-31T09:18:55.829Z,1004.91
2023-08-31T09:19:55.650Z,1004.95
2023-08-31T09:20:55.650Z,1004.93
2023-08-31T09:21:55.644Z,1004.90
2023-08-31T09:22:55.641Z,1004.93
2023-08-31T09:23:55.637Z,1004.92
2023-08-31T09:24:55.636Z,1004.89
2023-08-31T09:25:55.634Z,1004.91
2023-08-31T09:26:55.627Z,1004.91
2023-08-31T09:27:55.622Z,1004.89
2023-08-31T09:28:55.624Z,1004.92
2023-08-31T09:29:55.618Z,1004.91
2023-08-31T09:30:55.611Z,1004.94
2023-08-31T09:31:55.678Z,1004.89
2023-08-31T09:32:55.685Z,1004.95
2023-08-31T09:33:55.602Z,1004.98
2023-08-31T09:35:06.520Z,1004.95
2023-08-31T09:35:55.599Z,1004.98
2023-08-31T09:36:55.592Z,1004.99
2023-08-31T09:37:55.597Z,1005.02
2023-08-31T09:38:55.583Z,1004.99
2023-08-31T09:39:55.580Z,1004.99
2023-08-31T09:40:55.579Z,1004.98
2023-08-31T09:41:55.599Z,1004.98
2023-08-31T09:42:55.574Z,1004.92
2023-08-31T09:43:55.564Z,1004.89
2023-08-31T09:44:55.569Z,1004.87
2023-08-31T09:45:55.644Z,1004.84
2023-08-31T09:46:55.558Z,1004.88
2023-08-31T09:47:55.671Z,1004.84
2023-08-31T09:48:55.566Z,1004.82
2023-08-31T09:49:55.546Z,1004.82
2023-08-31T09:50:55.541Z,1004.80
2023-08-31T09:51:55.547Z,1004.79
2023-08-31T09:52:55.535Z,1004.78
2023-08-31T09:53:55.528Z,1004.79
2023-08-31T09:54:55.523Z,1004.80
2023-08-31T09:55:55.552Z,1004.75
2023-08-31T09:56:55.598Z,1004.76
2023-08-31T09:58:08.791Z,1004.77
2023-08-31T09:58:55.519Z,1004.72
2023-08-31T09:59:55.509Z,1004.66
2023-08-31T10:00:55.582Z,1004.67
2023-08-31T10:01:55.621Z,1004.70
2023-08-31T10:02:55.614Z,1004.65
2023-08-31T10:03:55.501Z,1004.70
2023-08-31T10:04:55.575Z,1004.67
2023-08-31T10:05:55.497Z,1004.67
2023-08-31T10:06:55.482Z,1004.71
2023-08-31T10:07:55.482Z,1004.71
2023-08-31T10:08:55.519Z,1004.70
2023-08-31T10:09:55.477Z,1004.72
2023-08-31T10:10:55.475Z,1004.72
2023-08-31T10:11:55.469Z,1004.75
2023-08-31T10:12:55.465Z,1004.70
2023-08-31T10:13:55.468Z,1004.70
2023-08-31T10:14:55.460Z,1004.69
2023-08-31T10:15:55.457Z,1004.76
2023-08-31T10:16:55.532Z,1004.74
2023-08-31T10:17:55.478Z,1004.75
2023-08-31T10:18:55.450Z,1004.70
2023-08-31T10:19:55.456Z,1004.73
2023-08-31T10:20:55.449Z,1004.77
2023-08-31T10:21:55.486Z,1004.73
2023-08-31T10:22:55.438Z,1004.74
2023-08-31T10:23:55.435Z,1004.79
2023-08-31T10:24:55.440Z,1004.80
2023-08-31T10:25:55.433Z,1004.83
2023-08-31T10:26:55.427Z,1004.88
2023-08-31T10:27:55.448Z,1004.79
2023-08-31T10:28:55.427Z,1004.86
2023-08-31T10:29:55.419Z,1004.89
2023-08-31T10:30:55.506Z,1004.88
2023-08-31T10:31:55.415Z,1004.88
2023-08-31T10:32:55.447Z,1004.88
2023-08-31T10:33:55.416Z,1004.91
2023-08-31T10:34:55.405Z,1004.94
2023-08-31T10:35:55.396Z,1004.96
2023-08-31T10:37:04.723Z,1004.95
2023-08-31T10:37:55.393Z,1005.02
2023-08-31T10:38:55.391Z,1005.04
2023-08-31T10:39:55.387Z,1005.01
2023-08-31T10:40:55.383Z,1005.03
2023-08-31T10:41:55.383Z,1005.09
2023-08-31T10:42:55.383Z,1005.08
2023-08-31T10:43:55.420Z,1005.05
2023-08-31T10:44:55.376Z,1005.11
2023-08-31T10:45:55.368Z,1005.11
2023-08-31T10:46:55.428Z,1005.11
2023-08-31T10:47:55.400Z,1005.12
2023-08-31T10:48:55.366Z,1005.14
2023-08-31T10:49:55.353Z,1005.20
2023-08-31T10:50:55.345Z,1005.21
2023-08-31T10:51:55.345Z,1005.19
2023-08-31T10:52:55.357Z,1005.22
2023-08-31T10:53:55.338Z,1005.23
2023-08-31T10:54:55.338Z,1005.23
2023-08-31T10:55:55.336Z,1005.22
2023-08-31T10:56:55.357Z,1005.18
2023-08-31T10:57:55.329Z,1005.18
2023-08-31T10:58:55.332Z,1005.15
2023-08-31T10:59:55.325Z,1005.13
2023-08-31T11:00:55.318Z,1005.13
2023-08-31T11:01:55.388Z,1005.12
2023-08-31T11:02:55.359Z,1005.10
2023-08-31T11:03:55.395Z,1005.06
2023-08-31T11:04:56.689Z,1005.08
2023-08-31T11:05:55.306Z,1005.10
2023-08-31T11:06:55.298Z,1005.06
2023-08-31T11:07:55.295Z,1005.04
2023-08-31T11:08:55.296Z,1005.03
2023-08-31T11:09:55.292Z,1005.02
2023-08-31T11:10:55.288Z,1005.03
2023-08-31T11:11:55.284Z,1005.05
2023-08-31T11:12:55.303Z,1005.04
2023-08-31T11:13:55.328Z,1005.05
2023-08-31T11:14:55.274Z,1005.03
2023-08-31T11:15:55.297Z,1005.04
2023-08-31T11:16:55.270Z,1005.05
2023-08-31T11:17:55.334Z,1005.01
2023-08-31T11:18:55.262Z,1005.04
2023-08-31T11:19:55.257Z,1005.06
2023-08-31T11:20:55.255Z,1005.03
2023-08-31T11:21:55.258Z,1005.06
2023-08-31T11:22:55.320Z,1005.03
2023-08-31T11:23:55.245Z,1005.02
2023-08-31T11:24:55.242Z,1005.00
2023-08-31T11:25:55.237Z,1005.03
2023-08-31T11:26:55.239Z,1005.03
2023-08-31T11:27:55.234Z,1004.98
2023-08-31T11:28:55.231Z,1004.91
2023-08-31T11:29:55.242Z,1004.93
2023-08-31T11:30:55.229Z,1004.90
2023-08-31T11:31:55.259Z,1004.91
2023-08-31T11:32:55.242Z,1004.88
2023-08-31T11:33:55.216Z,1004.90
2023-08-31T11:34:55.214Z,1004.87
2023-08-31T11:35:55.214Z,1004.88
2023-08-31T11:36:55.218Z,1004.87
2023-08-31T11:37:55.205Z,1004.85
2023-08-31T11:38:55.203Z,1004.83
2023-08-31T11:39:55.201Z,1004.81
2023-08-31T11:40:55.197Z,1004.82
2023-08-31T11:41:55.196Z,1004.86
2023-08-31T11:42:55.197Z,1004.85
2023-08-31T11:43:55.188Z,1004.87
2023-08-31T11:44:55.187Z,1004.89
2023-08-31T11:45:55.257Z,1004.91
2023-08-31T11:46:55.183Z,1004.90
2023-08-31T11:47:55.223Z,1004.90
2023-08-31T11:48:55.175Z,1004.95
2023-08-31T11:49:55.172Z,1004.90
2023-08-31T11:50:55.177Z,1004.89
2023-08-31T11:51:55.174Z,1004.89
2023-08-31T11:52:55.164Z,1004.96
2023-08-31T11:53:55.158Z,1004.93
2023-08-31T11:54:55.155Z,1004.93
2023-08-31T11:55:55.164Z,1004.87
2023-08-31T11:56:55.175Z,1004.87
2023-08-31T11:57:55.163Z,1004.90
2023-08-31T11:59:04.586Z,1004.89
2023-08-31T11:59:55.181Z,1004.91
2023-08-31T12:00:55.144Z,1004.94
2023-08-31T12:01:55.166Z,1004.96
2023-08-31T12:02:55.160Z,1004.94
2023-08-31T12:03:55.216Z,1004.96
2023-08-31T12:04:55.169Z,1005.01
2023-08-31T12:05:56.605Z,1005.02